sensor_id;sensor_type;location;lat;lon;timestamp;P1;durP1;ratioP1;P2;durP2;ratioP2
56130;SDS011;42000;44.774;20.506;2023-02-11T07:33:04;183.73;;;79.00;;
56130;SDS011;42000;44.774;20.506;2023-02-11T07:35:30;165.25;;;75.90;;
56130;SDS011;42000;44.774;20.506;2023-02-11T07:37:56;145.18;;;63.22;;
56130;SDS011;42000;44.774;20.506;2023-02-11T07:40:22;129.48;;;56.38;;
56130;SDS011;42000;44.774;20.506;2023-02-11T07:42:48;111.47;;;50.88;;
56130;SDS011;42000;44.774;20.506;2023-02-11T07:45:14;104.80;;;48.40;;
56130;SDS011;42000;44.774;20.506;2023-02-11T07:47:41;92.00;;;43.83;;
56130;SDS011;42000;44.774;20.506;2023-02-11T07:50:08;85.60;;;41.25;;
56130;SDS011;42000;44.774;20.506;2023-02-11T07:52:34;87.60;;;41.22;;
56130;SDS011;42000;44.774;20.506;2023-02-11T07:55:00;84.53;;;41.95;;
56130;SDS011;42000;44.774;20.506;2023-02-11T07:57:26;94.40;;;43.10;;
56130;SDS011;42000;44.774;20.506;2023-02-11T07:59:52;99.65;;;44.67;;
56130;SDS011;42000;44.774;20.506;2023-02-11T08:02:18;94.85;;;45.15;;
56130;SDS011;42000;44.774;20.506;2023-02-11T08:04:45;99.30;;;46.55;;
56130;SDS011;42000;44.774;20.506;2023-02-11T08:07:13;94.65;;;45.22;;
56130;SDS011;42000;44.774;20.506;2023-02-11T08:09:39;105.97;;;48.63;;
56130;SDS011;42000;44.774;20.506;2023-02-11T08:12:05;97.57;;;46.55;;
56130;SDS011;42000;44.774;20.506;2023-02-11T08:14:31;102.65;;;48.75;;
56130;SDS011;42000;44.774;20.506;2023-02-11T08:16:57;94.00;;;44.63;;
56130;SDS011;42000;44.774;20.506;2023-02-11T08:19:23;92.78;;;43.58;;
56130;SDS011;42000;44.774;20.506;2023-02-11T08:21:51;94.07;;;43.60;;
56130;SDS011;42000;44.774;20.506;2023-02-11T08:24:19;89.40;;;42.30;;
56130;SDS011;42000;44.774;20.506;2023-02-11T08:26:45;85.95;;;41.85;;
56130;SDS011;42000;44.774;20.506;2023-02-11T08:29:12;82.63;;;41.00;;
56130;SDS011;42000;44.774;20.506;2023-02-11T08:31:39;89.40;;;43.63;;
56130;SDS011;42000;44.774;20.506;2023-02-11T08:34:05;82.55;;;38.75;;
56130;SDS011;42000;44.774;20.506;2023-02-11T08:36:32;77.85;;;37.28;;
56130;SDS011;42000;44.774;20.506;2023-02-11T08:39:00;77.90;;;36.53;;
56130;SDS011;42000;44.774;20.506;2023-02-11T08:41:32;68.63;;;34.08;;
56130;SDS011;42000;44.774;20.506;2023-02-11T08:43:58;70.10;;;35.35;;
56130;SDS011;42000;44.774;20.506;2023-02-11T08:46:24;78.22;;;38.20;;
56130;SDS011;42000;44.774;20.506;2023-02-11T08:48:51;67.43;;;33.85;;
56130;SDS011;42000;44.774;20.506;2023-02-11T08:51:19;65.32;;;32.75;;
56130;SDS011;42000;44.774;20.506;2023-02-11T08:53:45;70.72;;;33.30;;
56130;SDS011;42000;44.774;20.506;2023-02-11T08:56:12;71.35;;;34.97;;
56130;SDS011;42000;44.774;20.506;2023-02-11T08:58:39;76.88;;;36.45;;
56130;SDS011;42000;44.774;20.506;2023-02-11T09:01:12;67.40;;;35.33;;
56130;SDS011;42000;44.774;20.506;2023-02-11T09:03:38;70.70;;;33.58;;
56130;SDS011;42000;44.774;20.506;2023-02-11T09:06:05;63.20;;;32.42;;
56130;SDS011;42000;44.774;20.506;2023-02-11T09:08:35;68.78;;;33.45;;
56130;SDS011;42000;44.774;20.506;2023-02-11T09:11:01;68.75;;;34.90;;
56130;SDS011;42000;44.774;20.506;2023-02-11T09:13:28;67.18;;;34.80;;
56130;SDS011;42000;44.774;20.506;2023-02-11T09:15:54;76.22;;;34.90;;
56130;SDS011;42000;44.774;20.506;2023-02-11T09:18:20;69.93;;;34.72;;
56130;SDS011;42000;44.774;20.506;2023-02-11T09:20:46;71.43;;;34.08;;
56130;SDS011;42000;44.774;20.506;2023-02-11T09:23:13;68.85;;;31.30;;
56130;SDS011;42000;44.774;20.506;2023-02-11T09:25:39;64.80;;;32.15;;
56130;SDS011;42000;44.774;20.506;2023-02-11T09:28:05;69.07;;;33.00;;
56130;SDS011;42000;44.774;20.506;2023-02-11T09:30:31;55.83;;;28.13;;
56130;SDS011;42000;44.774;20.506;2023-02-11T09:32:57;59.60;;;29.42;;
56130;SDS011;42000;44.774;20.506;2023-02-11T09:35:24;48.45;;;27.23;;
56130;SDS011;42000;44.774;20.506;2023-02-11T09:37:50;56.50;;;27.33;;
56130;SDS011;42000;44.774;20.506;2023-02-11T09:40:16;54.67;;;27.42;;
56130;SDS011;42000;44.774;20.506;2023-02-11T09:42:49;50.72;;;26.23;;
56130;SDS011;42000;44.774;20.506;2023-02-11T09:45:19;47.95;;;26.20;;
56130;SDS011;42000;44.774;20.506;2023-02-11T09:48:34;61.30;;;27.45;;
56130;SDS011;42000;44.774;20.506;2023-02-11T09:50:33;53.45;;;27.77;;
56130;SDS011;42000;44.774;20.506;2023-02-11T09:53:01;53.92;;;26.35;;
56130;SDS011;42000;44.774;20.506;2023-02-11T09:58:11;55.33;;;27.55;;
56130;SDS011;42000;44.774;20.506;2023-02-11T10:00:46;54.92;;;28.00;;
56130;SDS011;42000;44.774;20.506;2023-02-11T10:03:33;57.53;;;28.65;;
56130;SDS011;42000;44.774;20.506;2023-02-11T10:11:54;50.88;;;27.05;;
56130;SDS011;42000;44.774;20.506;2023-02-11T10:22:18;48.20;;;23.98;;
56130;SDS011;42000;44.774;20.506;2023-02-11T10:24:50;42.03;;;21.42;;
56130;SDS011;42000;44.774;20.506;2023-02-11T10:27:19;48.03;;;24.20;;
56130;SDS011;42000;44.774;20.506;2023-02-11T10:29:48;52.70;;;25.73;;
56130;SDS011;42000;44.774;20.506;2023-02-11T10:32:22;52.55;;;25.65;;
56130;SDS011;42000;44.774;20.506;2023-02-11T10:34:51;49.45;;;24.10;;
56130;SDS011;42000;44.774;20.506;2023-02-11T10:37:19;45.05;;;22.67;;
56130;SDS011;42000;44.774;20.506;2023-02-11T10:39:45;45.05;;;23.13;;
56130;SDS011;42000;44.774;20.506;2023-02-11T10:42:12;43.05;;;23.17;;
56130;SDS011;42000;44.774;20.506;2023-02-11T10:44:40;43.92;;;23.23;;
56130;SDS011;42000;44.774;20.506;2023-02-11T10:47:10;52.60;;;25.83;;
56130;SDS011;42000;44.774;20.506;2023-02-11T10:49:42;46.80;;;24.38;;
56130;SDS011;42000;44.774;20.506;2023-02-11T10:57:21;52.33;;;27.23;;
56130;SDS011;42000;44.774;20.506;2023-02-11T10:59:49;58.65;;;27.70;;
56130;SDS011;42000;44.774;20.506;2023-02-11T11:02:23;55.67;;;25.30;;
56130;SDS011;42000;44.774;20.506;2023-02-11T11:04:50;48.75;;;24.48;;
56130;SDS011;42000;44.774;20.506;2023-02-11T11:07:25;52.53;;;24.55;;
56130;SDS011;42000;44.774;20.506;2023-02-11T11:09:52;42.70;;;21.48;;
56130;SDS011;42000;44.774;20.506;2023-02-11T11:13:01;45.13;;;22.48;;
56130;SDS011;42000;44.774;20.506;2023-02-11T11:17:34;42.42;;;23.17;;
56130;SDS011;42000;44.774;20.506;2023-02-11T11:22:45;42.17;;;21.60;;
56130;SDS011;42000;44.774;20.506;2023-02-11T11:25:19;43.88;;;22.45;;
56130;SDS011;42000;44.774;20.506;2023-02-11T11:27:53;43.78;;;22.33;;
56130;SDS011;42000;44.774;20.506;2023-02-11T11:30:19;39.20;;;20.15;;
56130;SDS011;42000;44.774;20.506;2023-02-11T11:32:46;48.97;;;24.38;;
56130;SDS011;42000;44.774;20.506;2023-02-11T11:35:20;43.42;;;23.05;;
56130;SDS011;42000;44.774;20.506;2023-02-11T11:37:50;46.78;;;24.05;;
56130;SDS011;42000;44.774;20.506;2023-02-11T11:40:22;44.25;;;23.73;;
56130;SDS011;42000;44.774;20.506;2023-02-11T11:43:02;51.00;;;23.40;;
56130;SDS011;42000;44.774;20.506;2023-02-11T11:45:28;47.50;;;23.05;;
56130;SDS011;42000;44.774;20.506;2023-02-11T11:47:57;46.88;;;23.63;;
56130;SDS011;42000;44.774;20.506;2023-02-11T11:55:20;42.92;;;21.55;;
56130;SDS011;42000;44.774;20.506;2023-02-11T11:57:47;42.00;;;22.08;;
56130;SDS011;42000;44.774;20.506;2023-02-11T12:00:14;43.45;;;22.90;;
56130;SDS011;42000;44.774;20.506;2023-02-11T12:05:35;44.72;;;22.75;;
56130;SDS011;42000;44.774;20.506;2023-02-11T12:13:20;43.83;;;23.33;;
56130;SDS011;42000;44.774;20.506;2023-02-11T12:20:58;47.70;;;24.30;;
56130;SDS011;42000;44.774;20.506;2023-02-11T12:26:16;49.90;;;24.83;;
56130;SDS011;42000;44.774;20.506;2023-02-11T12:28:47;50.33;;;25.02;;
56130;SDS011;42000;44.774;20.506;2023-02-11T12:39:07;46.53;;;22.88;;
56130;SDS011;42000;44.774;20.506;2023-02-11T12:44:26;46.97;;;23.98;;
56130;SDS011;42000;44.774;20.506;2023-02-11T12:47:03;48.08;;;24.73;;
56130;SDS011;42000;44.774;20.506;2023-02-11T12:49:44;47.50;;;22.23;;
56130;SDS011;42000;44.774;20.506;2023-02-11T12:57:14;50.80;;;24.50;;
56130;SDS011;42000;44.774;20.506;2023-02-11T13:02:19;50.25;;;24.40;;
56130;SDS011;42000;44.774;20.506;2023-02-11T13:04:48;51.78;;;25.92;;
56130;SDS011;42000;44.774;20.506;2023-02-11T13:07:34;56.92;;;28.13;;
56130;SDS011;42000;44.774;20.506;2023-02-11T13:10:04;52.15;;;26.33;;
56130;SDS011;42000;44.774;20.506;2023-02-11T13:12:31;54.15;;;27.98;;
56130;SDS011;42000;44.774;20.506;2023-02-11T13:15:17;53.22;;;27.73;;
56130;SDS011;42000;44.774;20.506;2023-02-11T13:17:46;60.22;;;27.40;;
56130;SDS011;42000;44.774;20.506;2023-02-11T13:20:17;56.40;;;28.17;;
56130;SDS011;42000;44.774;20.506;2023-02-11T13:22:57;54.30;;;27.98;;
56130;SDS011;42000;44.774;20.506;2023-02-11T13:25:33;60.67;;;31.05;;
56130;SDS011;42000;44.774;20.506;2023-02-11T13:30:52;53.88;;;28.13;;
56130;SDS011;42000;44.774;20.506;2023-02-11T13:33:30;51.50;;;26.42;;
56130;SDS011;42000;44.774;20.506;2023-02-11T13:38:26;60.15;;;28.63;;
56130;SDS011;42000;44.774;20.506;2023-02-11T13:41:03;51.00;;;27.10;;
56130;SDS011;42000;44.774;20.506;2023-02-11T13:43:30;52.47;;;26.45;;
56130;SDS011;42000;44.774;20.506;2023-02-11T13:45:58;52.30;;;27.25;;
56130;SDS011;42000;44.774;20.506;2023-02-11T13:50:52;50.05;;;25.98;;
56130;SDS011;42000;44.774;20.506;2023-02-11T13:53:19;52.67;;;27.05;;
56130;SDS011;42000;44.774;20.506;2023-02-11T13:55:49;53.13;;;26.95;;
56130;SDS011;42000;44.774;20.506;2023-02-11T14:00:43;48.38;;;25.23;;
56130;SDS011;42000;44.774;20.506;2023-02-11T14:09:09;47.25;;;23.70;;
56130;SDS011;42000;44.774;20.506;2023-02-11T14:11:53;49.28;;;24.60;;
56130;SDS011;42000;44.774;20.506;2023-02-11T14:14:25;46.80;;;25.60;;
56130;SDS011;42000;44.774;20.506;2023-02-11T14:19:47;48.08;;;25.52;;
56130;SDS011;42000;44.774;20.506;2023-02-11T14:38:06;46.78;;;23.20;;
56130;SDS011;42000;44.774;20.506;2023-02-11T14:40:42;48.53;;;25.67;;
56130;SDS011;42000;44.774;20.506;2023-02-11T14:43:11;48.78;;;25.60;;
56130;SDS011;42000;44.774;20.506;2023-02-11T14:45:38;47.40;;;24.42;;
56130;SDS011;42000;44.774;20.506;2023-02-11T14:48:06;49.13;;;24.88;;
56130;SDS011;42000;44.774;20.506;2023-02-11T14:53:03;45.08;;;23.17;;
56130;SDS011;42000;44.774;20.506;2023-02-11T14:55:34;45.10;;;23.33;;
56130;SDS011;42000;44.774;20.506;2023-02-11T15:03:36;45.08;;;23.45;;
56130;SDS011;42000;44.774;20.506;2023-02-11T15:08:33;49.58;;;25.02;;
56130;SDS011;42000;44.774;20.506;2023-02-11T15:11:00;50.00;;;26.13;;
56130;SDS011;42000;44.774;20.506;2023-02-11T15:13:28;51.25;;;27.05;;
56130;SDS011;42000;44.774;20.506;2023-02-11T15:15:59;52.75;;;28.08;;
56130;SDS011;42000;44.774;20.506;2023-02-11T15:18:50;51.58;;;27.30;;
56130;SDS011;42000;44.774;20.506;2023-02-11T15:21:19;55.28;;;28.05;;
56130;SDS011;42000;44.774;20.506;2023-02-11T15:23:53;53.88;;;27.50;;
56130;SDS011;42000;44.774;20.506;2023-02-11T15:26:20;54.30;;;28.25;;
56130;SDS011;42000;44.774;20.506;2023-02-11T15:28:46;60.40;;;30.45;;
56130;SDS011;42000;44.774;20.506;2023-02-11T15:31:16;56.72;;;29.27;;
56130;SDS011;42000;44.774;20.506;2023-02-11T15:33:43;57.22;;;27.73;;
56130;SDS011;42000;44.774;20.506;2023-02-11T15:36:12;58.03;;;29.05;;
56130;SDS011;42000;44.774;20.506;2023-02-11T15:38:39;56.42;;;28.58;;
56130;SDS011;42000;44.774;20.506;2023-02-11T15:41:05;54.83;;;28.77;;
56130;SDS011;42000;44.774;20.506;2023-02-11T15:46:07;53.67;;;26.05;;
56130;SDS011;42000;44.774;20.506;2023-02-11T15:48:35;53.67;;;27.50;;
56130;SDS011;42000;44.774;20.506;2023-02-11T15:51:16;56.28;;;26.02;;
56130;SDS011;42000;44.774;20.506;2023-02-11T15:56:15;49.70;;;24.45;;
56130;SDS011;42000;44.774;20.506;2023-02-11T16:01:08;56.33;;;25.50;;
56130;SDS011;42000;44.774;20.506;2023-02-11T16:03:34;51.15;;;26.55;;
56130;SDS011;42000;44.774;20.506;2023-02-11T16:08:55;56.38;;;27.27;;
56130;SDS011;42000;44.774;20.506;2023-02-11T16:11:23;58.20;;;26.27;;
56130;SDS011;42000;44.774;20.506;2023-02-11T16:13:50;57.13;;;29.02;;
56130;SDS011;42000;44.774;20.506;2023-02-11T16:16:17;59.15;;;30.10;;
56130;SDS011;42000;44.774;20.506;2023-02-11T16:18:47;67.68;;;29.02;;
56130;SDS011;42000;44.774;20.506;2023-02-11T16:21:15;62.92;;;29.42;;
56130;SDS011;42000;44.774;20.506;2023-02-11T16:23:42;60.58;;;28.98;;
56130;SDS011;42000;44.774;20.506;2023-02-11T16:28:49;59.42;;;30.20;;
56130;SDS011;42000;44.774;20.506;2023-02-11T16:31:15;66.20;;;30.08;;
56130;SDS011;42000;44.774;20.506;2023-02-11T16:33:41;59.80;;;30.13;;
56130;SDS011;42000;44.774;20.506;2023-02-11T16:36:12;70.03;;;31.23;;
56130;SDS011;42000;44.774;20.506;2023-02-11T16:38:38;80.35;;;34.50;;
56130;SDS011;42000;44.774;20.506;2023-02-11T16:41:04;74.70;;;35.83;;
56130;SDS011;42000;44.774;20.506;2023-02-11T16:43:30;76.65;;;38.85;;
56130;SDS011;42000;44.774;20.506;2023-02-11T16:45:57;74.28;;;37.58;;
56130;SDS011;42000;44.774;20.506;2023-02-11T16:48:23;78.53;;;37.60;;
56130;SDS011;42000;44.774;20.506;2023-02-11T16:50:49;73.13;;;35.58;;
56130;SDS011;42000;44.774;20.506;2023-02-11T16:53:17;70.28;;;34.28;;
56130;SDS011;42000;44.774;20.506;2023-02-11T16:55:43;62.50;;;32.47;;
56130;SDS011;42000;44.774;20.506;2023-02-11T16:58:09;64.22;;;32.35;;
56130;SDS011;42000;44.774;20.506;2023-02-11T17:00:35;64.15;;;31.55;;
56130;SDS011;42000;44.774;20.506;2023-02-11T17:03:03;67.85;;;31.63;;
56130;SDS011;42000;44.774;20.506;2023-02-11T17:05:30;61.13;;;28.92;;
56130;SDS011;42000;44.774;20.506;2023-02-11T17:07:56;63.83;;;30.73;;
56130;SDS011;42000;44.774;20.506;2023-02-11T17:10:22;61.70;;;30.40;;
56130;SDS011;42000;44.774;20.506;2023-02-11T17:12:49;57.95;;;30.95;;
56130;SDS011;42000;44.774;20.506;2023-02-11T17:15:15;62.75;;;29.40;;
56130;SDS011;42000;44.774;20.506;2023-02-11T17:17:41;57.50;;;29.77;;
56130;SDS011;42000;44.774;20.506;2023-02-11T17:20:10;58.33;;;29.83;;
56130;SDS011;42000;44.774;20.506;2023-02-11T17:22:36;59.80;;;29.45;;
56130;SDS011;42000;44.774;20.506;2023-02-11T17:25:02;61.08;;;31.05;;
56130;SDS011;42000;44.774;20.506;2023-02-11T17:27:28;71.32;;;33.55;;
56130;SDS011;42000;44.774;20.506;2023-02-11T17:29:54;66.63;;;33.53;;
56130;SDS011;42000;44.774;20.506;2023-02-11T17:32:20;68.38;;;31.77;;
56130;SDS011;42000;44.774;20.506;2023-02-11T17:34:46;67.28;;;31.02;;
56130;SDS011;42000;44.774;20.506;2023-02-11T17:37:12;63.22;;;32.20;;
56130;SDS011;42000;44.774;20.506;2023-02-11T17:39:38;72.97;;;33.35;;
56130;SDS011;42000;44.774;20.506;2023-02-11T17:42:05;65.63;;;32.88;;
56130;SDS011;42000;44.774;20.506;2023-02-11T17:44:31;71.10;;;33.97;;
56130;SDS011;42000;44.774;20.506;2023-02-11T17:46:57;73.95;;;34.58;;
56130;SDS011;42000;44.774;20.506;2023-02-11T17:49:23;74.82;;;37.83;;
56130;SDS011;42000;44.774;20.506;2023-02-11T17:51:49;80.38;;;39.08;;
56130;SDS011;42000;44.774;20.506;2023-02-11T17:54:16;98.07;;;42.15;;
56130;SDS011;42000;44.774;20.506;2023-02-11T17:56:43;107.00;;;47.17;;
56130;SDS011;42000;44.774;20.506;2023-02-11T17:59:10;102.72;;;46.60;;
56130;SDS011;42000;44.774;20.506;2023-02-11T18:01:37;95.25;;;44.67;;
56130;SDS011;42000;44.774;20.506;2023-02-11T18:04:04;92.25;;;42.00;;
56130;SDS011;42000;44.774;20.506;2023-02-11T18:06:30;113.85;;;50.10;;
56130;SDS011;42000;44.774;20.506;2023-02-11T18:08:58;141.95;;;62.10;;
56130;SDS011;42000;44.774;20.506;2023-02-11T18:11:26;147.95;;;66.95;;
56130;SDS011;42000;44.774;20.506;2023-02-11T18:13:54;127.03;;;59.50;;
56130;SDS011;42000;44.774;20.506;2023-02-11T18:16:20;117.90;;;54.97;;
56130;SDS011;42000;44.774;20.506;2023-02-11T18:18:47;101.53;;;48.72;;
56130;SDS011;42000;44.774;20.506;2023-02-11T18:21:14;98.45;;;47.10;;
56130;SDS011;42000;44.774;20.506;2023-02-11T18:23:40;97.18;;;45.92;;
56130;SDS011;42000;44.774;20.506;2023-02-11T18:26:07;90.90;;;44.72;;
56130;SDS011;42000;44.774;20.506;2023-02-11T18:28:33;91.90;;;45.72;;
56130;SDS011;42000;44.774;20.506;2023-02-11T18:30:59;89.30;;;46.45;;
56130;SDS011;42000;44.774;20.506;2023-02-11T18:33:26;106.45;;;51.75;;
56130;SDS011;42000;44.774;20.506;2023-02-11T18:35:52;106.30;;;48.45;;
56130;SDS011;42000;44.774;20.506;2023-02-11T18:38:18;97.55;;;48.72;;
56130;SDS011;42000;44.774;20.506;2023-02-11T18:40:44;103.78;;;48.38;;
56130;SDS011;42000;44.774;20.506;2023-02-11T18:43:14;108.18;;;50.15;;
56130;SDS011;42000;44.774;20.506;2023-02-11T18:45:41;116.38;;;55.33;;
56130;SDS011;42000;44.774;20.506;2023-02-11T18:48:08;140.80;;;65.25;;
56130;SDS011;42000;44.774;20.506;2023-02-11T18:50:34;129.70;;;61.00;;
56130;SDS011;42000;44.774;20.506;2023-02-11T18:53:00;126.22;;;60.05;;
56130;SDS011;42000;44.774;20.506;2023-02-11T18:55:26;134.90;;;63.63;;
56130;SDS011;42000;44.774;20.506;2023-02-11T18:57:52;125.55;;;59.17;;
56130;SDS011;42000;44.774;20.506;2023-02-11T19:00:19;116.15;;;54.67;;
56130;SDS011;42000;44.774;20.506;2023-02-11T19:02:45;129.80;;;60.70;;
56130;SDS011;42000;44.774;20.506;2023-02-11T19:05:11;126.57;;;60.63;;
56130;SDS011;42000;44.774;20.506;2023-02-11T19:07:37;124.43;;;59.58;;
56130;SDS011;42000;44.774;20.506;2023-02-11T19:10:03;124.43;;;59.05;;
56130;SDS011;42000;44.774;20.506;2023-02-11T19:12:30;114.47;;;56.17;;
56130;SDS011;42000;44.774;20.506;2023-02-11T19:14:57;125.75;;;60.88;;
56130;SDS011;42000;44.774;20.506;2023-02-11T19:17:24;133.57;;;60.47;;
56130;SDS011;42000;44.774;20.506;2023-02-11T19:19:50;119.07;;;55.70;;
56130;SDS011;42000;44.774;20.506;2023-02-11T19:22:16;122.15;;;57.38;;
56130;SDS011;42000;44.774;20.506;2023-02-11T19:24:43;127.75;;;59.65;;
56130;SDS011;42000;44.774;20.506;2023-02-11T19:27:09;115.25;;;56.20;;
56130;SDS011;42000;44.774;20.506;2023-02-11T19:29:35;114.15;;;57.67;;
56130;SDS011;42000;44.774;20.506;2023-02-11T19:32:02;120.88;;;58.67;;
56130;SDS011;42000;44.774;20.506;2023-02-11T19:34:29;122.45;;;58.63;;
56130;SDS011;42000;44.774;20.506;2023-02-11T19:36:55;141.23;;;65.47;;
56130;SDS011;42000;44.774;20.506;2023-02-11T19:39:23;148.13;;;73.45;;
56130;SDS011;42000;44.774;20.506;2023-02-11T19:41:50;178.20;;;83.35;;
56130;SDS011;42000;44.774;20.506;2023-02-11T19:44:16;187.07;;;87.57;;
56130;SDS011;42000;44.774;20.506;2023-02-11T19:46:42;199.57;;;92.88;;
56130;SDS011;42000;44.774;20.506;2023-02-11T19:49:09;186.15;;;83.53;;
56130;SDS011;42000;44.774;20.506;2023-02-11T19:51:36;182.60;;;81.88;;
56130;SDS011;42000;44.774;20.506;2023-02-11T19:54:03;191.13;;;85.80;;
56130;SDS011;42000;44.774;20.506;2023-02-11T19:56:29;241.32;;;106.70;;
56130;SDS011;42000;44.774;20.506;2023-02-11T19:58:55;241.93;;;104.82;;
56130;SDS011;42000;44.774;20.506;2023-02-11T20:01:22;255.07;;;111.85;;
56130;SDS011;42000;44.774;20.506;2023-02-11T20:03:49;249.98;;;111.55;;
56130;SDS011;42000;44.774;20.506;2023-02-11T20:06:16;277.02;;;120.50;;
56130;SDS011;42000;44.774;20.506;2023-02-11T20:08:42;204.32;;;93.95;;
56130;SDS011;42000;44.774;20.506;2023-02-11T20:11:09;210.05;;;95.28;;
56130;SDS011;42000;44.774;20.506;2023-02-11T20:13:36;195.10;;;94.80;;
56130;SDS011;42000;44.774;20.506;2023-02-11T20:16:03;201.02;;;95.78;;
56130;SDS011;42000;44.774;20.506;2023-02-11T20:18:29;201.93;;;92.95;;
56130;SDS011;42000;44.774;20.506;2023-02-11T20:20:56;222.50;;;96.20;;
56130;SDS011;42000;44.774;20.506;2023-02-11T20:23:25;199.73;;;94.20;;
56130;SDS011;42000;44.774;20.506;2023-02-11T20:25:51;220.77;;;97.05;;
56130;SDS011;42000;44.774;20.506;2023-02-11T20:28:17;201.32;;;91.05;;
56130;SDS011;42000;44.774;20.506;2023-02-11T20:30:43;183.63;;;84.50;;
56130;SDS011;42000;44.774;20.506;2023-02-11T20:33:09;194.90;;;87.90;;
56130;SDS011;42000;44.774;20.506;2023-02-11T20:35:35;196.90;;;85.82;;
56130;SDS011;42000;44.774;20.506;2023-02-11T20:38:02;222.55;;;93.78;;
56130;SDS011;42000;44.774;20.506;2023-02-11T20:40:28;218.38;;;95.35;;
56130;SDS011;42000;44.774;20.506;2023-02-11T20:42:54;186.73;;;86.75;;
56130;SDS011;42000;44.774;20.506;2023-02-11T20:45:20;169.85;;;80.35;;
56130;SDS011;42000;44.774;20.506;2023-02-11T20:47:46;143.48;;;68.57;;
56130;SDS011;42000;44.774;20.506;2023-02-11T20:50:12;137.32;;;63.75;;
56130;SDS011;42000;44.774;20.506;2023-02-11T20:52:38;122.30;;;58.05;;
56130;SDS011;42000;44.774;20.506;2023-02-11T20:55:04;124.72;;;57.08;;
56130;SDS011;42000;44.774;20.506;2023-02-11T20:57:30;110.20;;;56.50;;
56130;SDS011;42000;44.774;20.506;2023-02-11T20:59:59;110.97;;;53.58;;
56130;SDS011;42000;44.774;20.506;2023-02-11T21:02:25;105.45;;;49.70;;
56130;SDS011;42000;44.774;20.506;2023-02-11T21:04:51;106.40;;;49.67;;
56130;SDS011;42000;44.774;20.506;2023-02-11T21:07:17;104.00;;;50.38;;
56130;SDS011;42000;44.774;20.506;2023-02-11T21:09:43;99.10;;;49.63;;
56130;SDS011;42000;44.774;20.506;2023-02-11T21:12:09;92.97;;;46.80;;
56130;SDS011;42000;44.774;20.506;2023-02-11T21:14:35;92.90;;;45.83;;
56130;SDS011;42000;44.774;20.506;2023-02-11T21:17:01;105.07;;;48.22;;
56130;SDS011;42000;44.774;20.506;2023-02-11T21:19:27;91.50;;;44.88;;
56130;SDS011;42000;44.774;20.506;2023-02-11T21:21:53;94.40;;;46.05;;
56130;SDS011;42000;44.774;20.506;2023-02-11T21:24:21;92.63;;;47.10;;
56130;SDS011;42000;44.774;20.506;2023-02-11T21:26:47;91.43;;;47.65;;
56130;SDS011;42000;44.774;20.506;2023-02-11T21:29:13;107.13;;;52.40;;
56130;SDS011;42000;44.774;20.506;2023-02-11T21:31:39;94.88;;;46.17;;
56130;SDS011;42000;44.774;20.506;2023-02-11T21:34:05;94.03;;;45.55;;
56130;SDS011;42000;44.774;20.506;2023-02-11T21:36:32;92.95;;;44.80;;
56130;SDS011;42000;44.774;20.506;2023-02-11T21:38:58;95.47;;;44.22;;
56130;SDS011;42000;44.774;20.506;2023-02-11T21:41:25;91.75;;;44.95;;
56130;SDS011;42000;44.774;20.506;2023-02-11T21:43:52;86.90;;;43.55;;
56130;SDS011;42000;44.774;20.506;2023-02-11T21:46:18;91.32;;;44.30;;
56130;SDS011;42000;44.774;20.506;2023-02-11T21:48:44;88.47;;;45.05;;
56130;SDS011;42000;44.774;20.506;2023-02-11T21:51:12;94.45;;;46.30;;
56130;SDS011;42000;44.774;20.506;2023-02-11T21:53:38;92.97;;;45.28;;
56130;SDS011;42000;44.774;20.506;2023-02-11T21:56:23;99.30;;;46.72;;
56130;SDS011;42000;44.774;20.506;2023-02-11T21:58:52;90.43;;;45.20;;
56130;SDS011;42000;44.774;20.506;2023-02-11T22:01:19;83.82;;;40.83;;
56130;SDS011;42000;44.774;20.506;2023-02-11T22:03:46;87.93;;;42.75;;
56130;SDS011;42000;44.774;20.506;2023-02-11T22:06:13;84.20;;;40.92;;
56130;SDS011;42000;44.774;20.506;2023-02-11T22:08:39;85.22;;;40.85;;
56130;SDS011;42000;44.774;20.506;2023-02-11T22:11:07;83.07;;;41.75;;
56130;SDS011;42000;44.774;20.506;2023-02-11T22:13:34;83.43;;;40.33;;
56130;SDS011;42000;44.774;20.506;2023-02-11T22:16:01;80.88;;;39.95;;
56130;SDS011;42000;44.774;20.506;2023-02-11T22:18:28;96.47;;;44.15;;
56130;SDS011;42000;44.774;20.506;2023-02-11T22:21:02;109.70;;;52.28;;
56130;SDS011;42000;44.774;20.506;2023-02-11T22:23:28;102.38;;;48.65;;
56130;SDS011;42000;44.774;20.506;2023-02-11T22:25:55;100.40;;;46.78;;
56130;SDS011;42000;44.774;20.506;2023-02-11T22:28:21;92.20;;;44.05;;
56130;SDS011;42000;44.774;20.506;2023-02-11T22:30:53;88.43;;;45.17;;
56130;SDS011;42000;44.774;20.506;2023-02-11T22:33:19;87.78;;;42.60;;
56130;SDS011;42000;44.774;20.506;2023-02-11T22:35:45;87.75;;;42.22;;
56130;SDS011;42000;44.774;20.506;2023-02-11T22:38:11;100.10;;;48.65;;
56130;SDS011;42000;44.774;20.506;2023-02-11T22:40:43;92.50;;;44.97;;
56130;SDS011;42000;44.774;20.506;2023-02-11T22:43:09;92.38;;;44.15;;
56130;SDS011;42000;44.774;20.506;2023-02-11T22:45:35;89.10;;;45.38;;
